createdAt,value
2017-10-12T00:02:15.298Z,2.93
2017-10-12T00:04:42.772Z,2.67
2017-10-12T00:07:11.028Z,2.63
2017-10-12T00:09:38.671Z,2.77
2017-10-12T00:12:06.150Z,2.40
2017-10-12T00:14:34.412Z,2.60
2017-10-12T00:17:01.885Z,2.43
2017-10-12T00:19:29.356Z,2.53
2017-10-12T00:21:57.601Z,2.90
2017-10-12T00:24:25.065Z,2.53
2017-10-12T00:26:53.317Z,2.63
2017-10-12T00:29:20.811Z,2.67
2017-10-12T00:31:49.067Z,2.87
2017-10-12T00:34:16.577Z,2.60
2017-10-12T00:36:44.075Z,2.70
2017-10-12T00:39:11.672Z,2.60
2017-10-12T00:41:39.926Z,2.20
2017-10-12T00:44:07.415Z,2.60
2017-10-12T00:46:35.672Z,2.47
2017-10-12T00:49:03.175Z,2.70
2017-10-12T00:51:30.672Z,2.40
2017-10-12T00:53:58.140Z,2.30
2017-10-12T00:56:25.631Z,2.60
2017-10-12T00:58:53.168Z,2.60
2017-10-12T01:01:21.431Z,2.70
2017-10-12T01:03:48.949Z,2.80
2017-10-12T01:06:16.452Z,2.80
2017-10-12T01:08:44.735Z,2.53
2017-10-12T01:11:13.276Z,2.90
2017-10-12T01:13:40.756Z,3.07
2017-10-12T01:16:08.335Z,2.70
2017-10-12T01:18:36.584Z,3.00
2017-10-12T01:21:05.644Z,2.80
2017-10-12T01:23:33.104Z,2.30
2017-10-12T01:26:00.573Z,2.23
2017-10-12T01:28:28.042Z,2.70
2017-10-12T01:30:55.513Z,2.70
2017-10-12T01:33:22.981Z,2.37
2017-10-12T01:35:51.228Z,2.70
2017-10-12T01:38:20.216Z,2.43
2017-10-12T01:40:47.704Z,2.50
2017-10-12T01:43:15.977Z,2.67
2017-10-12T01:45:44.229Z,2.50
2017-10-12T01:48:11.798Z,2.93
2017-10-12T01:50:39.271Z,2.50
2017-10-12T01:53:07.498Z,3.70
2017-10-12T01:55:34.972Z,3.60
2017-10-12T01:58:02.530Z,2.80
2017-10-12T02:00:30.007Z,3.03
2017-10-12T02:02:57.475Z,3.20
2017-10-12T02:05:24.998Z,2.97
2017-10-12T02:07:52.732Z,3.00
2017-10-12T02:10:20.683Z,3.67
2017-10-12T02:12:48.905Z,3.20
2017-10-12T02:15:16.390Z,3.60
2017-10-12T02:17:43.843Z,3.20
2017-10-12T02:20:12.069Z,3.77
2017-10-12T02:22:39.651Z,2.93
2017-10-12T02:25:07.110Z,3.03
2017-10-12T02:27:34.589Z,2.97
2017-10-12T02:30:02.075Z,3.30
2017-10-12T02:32:29.526Z,3.10
2017-10-12T02:34:57.750Z,2.97
2017-10-12T02:37:25.234Z,2.93
2017-10-12T02:39:52.689Z,4.13
2017-10-12T02:42:20.195Z,2.87
2017-10-12T02:44:47.654Z,3.00
2017-10-12T02:47:15.157Z,3.00
2017-10-12T02:49:42.621Z,3.37
2017-10-12T02:52:10.869Z,3.50
2017-10-12T02:54:38.326Z,3.33
2017-10-12T02:57:05.807Z,3.40
2017-10-12T02:59:33.272Z,3.17
2017-10-12T03:02:02.258Z,3.23
2017-10-12T03:04:30.483Z,3.23
2017-10-12T03:06:57.943Z,3.00
2017-10-12T03:09:25.417Z,3.27
2017-10-12T03:11:52.893Z,3.43
2017-10-12T03:14:20.565Z,3.50
2017-10-12T03:16:48.793Z,3.00
2017-10-12T03:19:16.273Z,3.77
2017-10-12T03:21:43.750Z,3.33
2017-10-12T03:24:12.884Z,3.43
2017-10-12T03:26:40.349Z,3.27
2017-10-12T03:29:07.840Z,3.97
2017-10-12T03:31:35.310Z,4.17
2017-10-12T03:34:03.507Z,3.07
2017-10-12T03:36:31.758Z,2.90
2017-10-12T03:38:59.228Z,3.10
2017-10-12T03:41:26.678Z,3.50
2017-10-12T03:43:54.262Z,3.57
2017-10-12T03:46:22.490Z,3.60
2017-10-12T03:48:49.945Z,3.60
2017-10-12T03:51:17.420Z,3.47
2017-10-12T03:53:44.886Z,3.70
2017-10-12T03:56:12.522Z,3.67
2017-10-12T03:58:40.060Z,3.87
2017-10-12T04:01:07.721Z,3.57
2017-10-12T04:03:35.237Z,3.37
2017-10-12T04:06:03.611Z,3.20
2017-10-12T04:08:31.838Z,3.20
2017-10-12T04:10:59.318Z,2.77
2017-10-12T04:13:26.781Z,3.90
2017-10-12T04:15:54.254Z,3.30
2017-10-12T04:18:22.471Z,3.30
2017-10-12T04:20:50.046Z,3.73
2017-10-12T04:23:17.534Z,3.60
2017-10-12T04:25:45.043Z,3.77
2017-10-12T04:28:12.517Z,4.10
2017-10-12T04:30:39.995Z,4.03
2017-10-12T04:33:07.457Z,4.03
2017-10-12T04:35:36.441Z,3.53
2017-10-12T04:38:03.906Z,4.03
2017-10-12T04:40:31.361Z,4.23
2017-10-12T04:42:58.844Z,4.13
2017-10-12T04:45:27.065Z,4.07
2017-10-12T04:47:54.542Z,3.83
2017-10-12T04:50:22.061Z,4.00
2017-10-12T04:52:49.539Z,3.57
2017-10-12T04:55:16.998Z,4.67
2017-10-12T04:57:44.462Z,3.97
2017-10-12T05:00:11.972Z,3.70
2017-10-12T05:02:40.409Z,3.77
2017-10-12T05:05:07.934Z,3.97
2017-10-12T05:07:35.633Z,7.73
2017-10-12T05:10:03.173Z,8.67
2017-10-12T05:12:30.711Z,5.53
2017-10-12T05:14:58.196Z,4.47
2017-10-12T05:17:25.681Z,4.17
2017-10-12T05:19:53.942Z,3.60
2017-10-12T05:22:21.409Z,3.67
2017-10-12T05:24:50.418Z,4.23
2017-10-12T05:27:18.653Z,4.10
2017-10-12T05:29:46.118Z,3.30
2017-10-12T05:32:13.712Z,3.67
2017-10-12T05:34:41.960Z,3.70
2017-10-12T05:37:10.201Z,3.50
2017-10-12T05:39:37.665Z,3.23
2017-10-12T05:42:05.167Z,4.20
2017-10-12T05:44:33.398Z,4.27
2017-10-12T05:47:00.900Z,4.00
2017-10-12T05:49:29.129Z,3.90
2017-10-12T05:51:56.610Z,3.83
2017-10-12T05:54:24.840Z,4.43
2017-10-12T05:56:52.321Z,4.43
2017-10-12T05:59:19.817Z,3.93
2017-10-12T06:01:48.041Z,3.80
2017-10-12T06:04:15.533Z,3.87
2017-10-12T06:06:42.993Z,5.37
2017-10-12T06:09:10.473Z,5.87
2017-10-12T06:11:38.717Z,6.20
2017-10-12T06:14:06.184Z,5.53
2017-10-12T06:16:34.441Z,6.27
2017-10-12T06:19:01.969Z,4.57
2017-10-12T06:21:29.474Z,5.20
2017-10-12T06:23:56.942Z,4.20
2017-10-12T06:26:24.425Z,4.17
2017-10-12T06:28:51.914Z,3.53
2017-10-12T06:31:19.478Z,4.17
2017-10-12T06:33:46.987Z,3.97
2017-10-12T06:36:15.221Z,3.87
2017-10-12T06:38:42.686Z,4.40
2017-10-12T06:41:10.179Z,5.10
2017-10-12T06:43:38.399Z,3.63
2017-10-12T06:46:06.023Z,4.43
2017-10-12T06:48:33.521Z,4.47
2017-10-12T06:51:01.081Z,3.77
2017-10-12T06:53:28.725Z,3.80
2017-10-12T06:55:56.189Z,4.00
2017-10-12T06:58:23.680Z,4.27
2017-10-12T07:00:52.648Z,3.47
2017-10-12T07:03:20.178Z,3.77
2017-10-12T07:05:47.765Z,4.17
2017-10-12T07:08:15.347Z,3.77
2017-10-12T07:10:44.326Z,4.13
2017-10-12T07:13:11.786Z,5.50
2017-10-12T07:15:40.782Z,4.13
2017-10-12T07:18:08.238Z,4.07
2017-10-12T07:20:37.378Z,5.00
2017-10-12T07:23:04.850Z,3.93
2017-10-12T07:25:32.333Z,3.80
2017-10-12T07:27:59.792Z,3.27
2017-10-12T07:30:27.278Z,4.60
2017-10-12T07:32:55.511Z,4.40
2017-10-12T07:35:23.007Z,3.90
2017-10-12T07:37:50.466Z,5.37
2017-10-12T07:40:18.710Z,3.70
2017-10-12T07:42:46.206Z,3.90
2017-10-12T07:45:14.455Z,3.63
2017-10-12T07:47:41.941Z,4.07
2017-10-12T07:50:10.329Z,3.47
2017-10-12T07:52:37.833Z,4.30
2017-10-12T07:55:05.292Z,3.90
2017-10-12T07:57:32.789Z,3.50
2017-10-12T08:00:01.008Z,3.80
2017-10-12T08:02:28.489Z,3.83
2017-10-12T08:04:55.970Z,3.63
2017-10-12T08:07:24.213Z,5.37
2017-10-12T08:09:51.689Z,3.40
2017-10-12T08:12:20.699Z,4.37
2017-10-12T08:14:48.975Z,3.77
2017-10-12T08:17:17.200Z,4.40
2017-10-12T08:19:44.680Z,4.60
2017-10-12T08:22:12.165Z,4.40
2017-10-12T08:24:40.414Z,4.33
2017-10-12T08:27:07.958Z,4.37
2017-10-12T08:29:35.459Z,4.10
2017-10-12T08:32:03.762Z,3.60
2017-10-12T08:34:31.252Z,4.37
2017-10-12T08:36:58.713Z,3.37
2017-10-12T08:39:26.202Z,3.73
2017-10-12T08:41:54.428Z,4.10
2017-10-12T08:44:22.076Z,4.40
2017-10-12T08:46:49.708Z,3.07
2017-10-12T08:49:17.936Z,4.00
2017-10-12T08:51:45.593Z,5.27
2017-10-12T08:54:13.963Z,3.33
2017-10-12T08:56:41.575Z,3.23
2017-10-12T08:59:09.801Z,4.83
2017-10-12T09:01:37.329Z,3.47
2017-10-12T09:04:04.831Z,3.83
2017-10-12T09:06:32.428Z,2.97
2017-10-12T09:09:00.685Z,4.03
2017-10-12T09:11:28.160Z,3.70
2017-10-12T09:13:56.401Z,4.50
2017-10-12T09:16:23.878Z,3.63
2017-10-12T09:18:52.173Z,4.67
2017-10-12T09:21:20.412Z,4.60
2017-10-12T09:23:47.989Z,4.43
2017-10-12T09:26:22.134Z,4.07
2017-10-12T09:28:49.694Z,3.50
2017-10-12T09:31:17.167Z,4.13
2017-10-12T09:33:45.376Z,4.30
2017-10-12T09:36:12.861Z,3.30
2017-10-12T09:38:41.093Z,4.13
2017-10-12T09:41:08.566Z,3.00
2017-10-12T09:43:36.820Z,3.57
2017-10-12T09:46:04.297Z,3.80
2017-10-12T09:48:31.766Z,2.97
2017-10-12T09:50:59.249Z,3.63
2017-10-12T09:53:26.701Z,3.90
2017-10-12T09:55:54.954Z,3.03
2017-10-12T09:58:22.433Z,3.33
2017-10-12T10:00:50.695Z,2.90
2017-10-12T10:03:18.922Z,3.20
2017-10-12T10:05:46.390Z,2.63
2017-10-12T10:08:13.875Z,3.70
2017-10-12T10:10:41.336Z,2.93
2017-10-12T10:13:08.841Z,3.00
2017-10-12T10:15:36.296Z,3.07
2017-10-12T10:18:04.536Z,2.37
2017-10-12T10:20:32.756Z,2.83
2017-10-12T10:23:00.299Z,2.30
2017-10-12T10:25:27.783Z,2.67
2017-10-12T10:27:55.241Z,2.50
2017-10-12T10:30:22.734Z,2.80
2017-10-12T10:32:50.181Z,2.20
2017-10-12T10:35:17.660Z,2.60
2017-10-12T10:37:45.150Z,2.87
2017-10-12T10:40:12.627Z,2.40
2017-10-12T10:42:40.188Z,2.93
2017-10-12T10:45:07.854Z,2.10
2017-10-12T10:47:35.310Z,2.40
2017-10-12T10:50:02.994Z,2.20
2017-10-12T10:52:31.957Z,2.70
2017-10-12T10:54:59.466Z,2.20
2017-10-12T10:57:27.691Z,2.47
2017-10-12T10:59:55.165Z,2.43
2017-10-12T11:02:23.764Z,2.40
2017-10-12T11:04:51.374Z,2.10
2017-10-12T11:07:18.963Z,3.50
2017-10-12T11:09:47.936Z,2.30
2017-10-12T11:12:15.419Z,2.60
2017-10-12T11:14:42.890Z,2.07
2017-10-12T11:17:11.213Z,2.50
2017-10-12T11:19:38.871Z,2.70
2017-10-12T11:22:06.326Z,3.30
2017-10-12T11:24:33.809Z,2.30
2017-10-12T11:27:01.267Z,2.63
2017-10-12T11:29:28.824Z,2.97
2017-10-12T11:31:56.454Z,2.00
2017-10-12T11:34:24.641Z,2.67
2017-10-12T11:36:52.092Z,2.40
2017-10-12T11:39:19.575Z,2.57
2017-10-12T11:41:47.046Z,2.40
2017-10-12T11:44:14.544Z,2.70
2017-10-12T11:46:42.037Z,2.60
2017-10-12T11:49:09.501Z,2.40
2017-10-12T11:51:37.460Z,3.13
2017-10-12T11:54:05.208Z,2.47
2017-10-12T11:56:32.666Z,2.47
2017-10-12T11:59:00.172Z,2.90
2017-10-12T12:01:27.721Z,2.47
2017-10-12T12:03:55.189Z,2.70
2017-10-12T12:06:22.656Z,2.63
2017-10-12T12:08:50.899Z,2.30
2017-10-12T12:11:18.378Z,3.30
2017-10-12T12:13:45.828Z,2.30
2017-10-12T12:16:14.091Z,3.10
2017-10-12T12:18:41.555Z,2.80
2017-10-12T12:21:10.852Z,3.00
2017-10-12T12:23:39.074Z,2.80
2017-10-12T12:26:06.544Z,2.20
2017-10-12T12:28:34.020Z,2.20
2017-10-12T12:31:01.472Z,2.77
2017-10-12T12:33:29.050Z,2.40
2017-10-12T12:35:56.496Z,2.20
2017-10-12T12:38:23.980Z,2.20
2017-10-12T12:40:51.438Z,2.57
2017-10-12T12:43:19.008Z,2.37
2017-10-12T12:45:47.249Z,1.83
2017-10-12T12:48:14.709Z,2.70
2017-10-12T12:50:42.206Z,2.23
2017-10-12T12:53:10.426Z,2.57
2017-10-12T12:55:37.888Z,2.23
2017-10-12T12:58:05.355Z,2.47
2017-10-12T13:00:32.816Z,1.93
2017-10-12T13:03:00.286Z,3.23
2017-10-12T13:07:55.365Z,2.40
2017-10-12T13:10:22.851Z,2.50
2017-10-12T13:12:51.048Z,2.67
2017-10-12T13:15:19.307Z,3.03
2017-10-12T13:17:46.969Z,2.07
2017-10-12T13:20:14.427Z,2.40
2017-10-12T13:22:41.906Z,2.60
2017-10-12T13:25:10.121Z,2.00
2017-10-12T13:27:37.590Z,1.90
2017-10-12T13:30:05.048Z,2.40
2017-10-12T13:32:32.532Z,2.50
2017-10-12T13:34:59.992Z,2.10
2017-10-12T13:37:28.197Z,2.00
2017-10-12T13:39:55.672Z,2.30
2017-10-12T13:42:23.149Z,1.63
2017-10-12T13:44:50.613Z,2.77
2017-10-12T13:47:18.085Z,2.53
2017-10-12T13:49:46.049Z,2.30
2017-10-12T13:52:13.545Z,2.70
2017-10-12T13:54:41.022Z,2.10
2017-10-12T13:57:08.588Z,2.07
2017-10-12T14:12:22.794Z,2.10
2017-10-12T14:14:50.271Z,2.53
2017-10-12T14:17:17.899Z,2.07
2017-10-12T14:19:46.125Z,1.70
2017-10-12T14:22:13.606Z,1.70
2017-10-12T14:24:42.662Z,2.00
2017-10-12T14:27:10.132Z,3.13
2017-10-12T14:29:37.629Z,2.20
2017-10-12T14:32:05.229Z,2.20
2017-10-12T14:34:32.697Z,2.50
2017-10-12T14:37:00.152Z,2.17
2017-10-12T14:39:27.629Z,2.27
2017-10-12T14:41:56.798Z,2.50
2017-10-12T14:44:24.265Z,2.37
2017-10-12T14:46:51.728Z,2.63
2017-10-12T14:49:19.204Z,2.17
2017-10-12T14:51:46.676Z,2.23
2017-10-12T14:54:14.155Z,2.20
2017-10-12T14:56:42.377Z,3.10
2017-10-12T14:59:09.861Z,3.40
2017-10-12T15:01:37.337Z,2.50
2017-10-12T15:04:06.061Z,2.90
2017-10-12T15:06:33.732Z,2.17
2017-10-12T15:09:01.313Z,2.20
2017-10-12T15:11:29.608Z,2.73
2017-10-12T15:13:57.173Z,1.60
2017-10-12T15:16:25.439Z,2.60
2017-10-12T15:18:52.910Z,2.33
2017-10-12T15:21:21.142Z,2.50
2017-10-12T15:23:48.634Z,2.43
2017-10-12T15:26:16.856Z,2.60
2017-10-12T15:28:44.966Z,2.40
2017-10-12T15:31:13.973Z,2.43
2017-10-12T15:33:42.222Z,2.20
2017-10-12T15:36:09.693Z,2.30
2017-10-12T15:38:37.175Z,2.40
2017-10-12T15:41:04.653Z,2.20
2017-10-12T15:43:32.131Z,2.77
2017-10-12T15:45:59.617Z,2.70
2017-10-12T15:48:27.873Z,2.20
2017-10-12T15:50:55.343Z,1.90
2017-10-12T15:53:22.809Z,2.40
2017-10-12T15:55:50.280Z,2.07
2017-10-12T15:58:18.508Z,2.50
2017-10-12T16:00:45.986Z,2.10
2017-10-12T16:03:13.460Z,3.30
2017-10-12T16:05:42.448Z,1.90
2017-10-12T16:08:09.920Z,12.20
2017-10-12T16:10:38.181Z,11.90
2017-10-12T16:13:05.653Z,2.43
2017-10-12T16:15:33.884Z,2.30
2017-10-12T16:18:01.384Z,2.63
2017-10-12T16:20:29.634Z,2.20
2017-10-12T16:25:24.587Z,3.10
2017-10-12T16:27:52.070Z,2.10
2017-10-12T16:30:19.530Z,2.40
2017-10-12T16:37:48.449Z,2.40
2017-10-12T16:40:15.914Z,1.80
2017-10-12T16:42:43.423Z,2.37
2017-10-12T16:45:10.873Z,2.20
2017-10-12T16:47:38.351Z,2.40
2017-10-12T16:50:05.934Z,1.80
2017-10-12T16:52:33.509Z,2.07
2017-10-12T16:55:00.968Z,2.67
2017-10-12T16:57:28.458Z,2.40
2017-10-12T16:59:55.910Z,2.50
2017-10-12T17:02:23.458Z,3.80
2017-10-12T17:04:52.445Z,2.87
2017-10-12T17:07:19.926Z,1.93
2017-10-12T17:09:47.482Z,2.43
2017-10-12T17:12:14.969Z,2.60
2017-10-12T17:14:42.466Z,3.60
2017-10-12T17:17:10.469Z,2.53
2017-10-12T17:19:37.958Z,2.33
2017-10-12T17:22:05.454Z,3.47
2017-10-12T17:24:32.974Z,3.00
2017-10-12T17:27:00.427Z,2.80
2017-10-12T17:29:28.043Z,3.50
2017-10-12T17:31:55.537Z,2.60
2017-10-12T17:34:23.776Z,2.73
2017-10-12T17:36:51.256Z,2.80
2017-10-12T17:39:19.578Z,3.23
2017-10-12T17:41:47.560Z,3.00
2017-10-12T17:44:15.041Z,3.17
2017-10-12T17:46:44.058Z,3.00
2017-10-12T17:49:12.296Z,3.20
2017-10-12T17:51:39.779Z,2.73
2017-10-12T17:54:37.055Z,2.93
2017-10-12T17:56:36.582Z,3.10
2017-10-12T17:59:04.053Z,3.70
2017-10-12T18:01:31.544Z,3.90
2017-10-12T18:03:59.057Z,3.43
2017-10-12T18:06:26.762Z,3.53
2017-10-12T18:08:54.250Z,4.30
2017-10-12T18:11:21.734Z,3.87
2017-10-12T18:13:49.225Z,4.23
2017-10-12T18:16:18.205Z,4.17
2017-10-12T18:18:45.713Z,4.47
2017-10-12T18:21:13.952Z,4.57
2017-10-12T18:23:41.440Z,4.50
2017-10-12T18:26:08.945Z,3.97
2017-10-12T18:28:36.453Z,3.33
2017-10-12T18:31:05.165Z,3.57
2017-10-12T18:33:32.646Z,4.17
2017-10-12T18:36:00.129Z,3.30
2017-10-12T18:38:27.638Z,3.87
2017-10-12T18:40:55.138Z,3.33
2017-10-12T18:43:22.615Z,4.00
2017-10-12T18:45:50.867Z,4.27
2017-10-12T18:48:18.346Z,3.90
2017-10-12T18:50:47.295Z,4.23
2017-10-12T18:53:14.783Z,5.00
2017-10-12T18:55:42.288Z,5.70
2017-10-12T18:58:09.752Z,4.93
2017-10-12T19:00:37.234Z,10.30
2017-10-12T19:03:04.726Z,19.07
2017-10-12T19:05:33.015Z,5.20
2017-10-12T19:08:01.266Z,5.07
2017-10-12T19:10:28.722Z,5.37
2017-10-12T19:12:56.997Z,5.10
2017-10-12T19:15:24.550Z,4.17
2017-10-12T19:17:52.061Z,4.67
2017-10-12T19:20:20.295Z,4.90
2017-10-12T19:22:48.558Z,4.80
2017-10-12T19:25:16.874Z,4.80
2017-10-12T19:27:44.365Z,4.63
2017-10-12T19:30:12.461Z,4.80
2017-10-12T19:32:39.999Z,4.80
2017-10-12T19:35:07.480Z,5.00
2017-10-12T19:37:36.460Z,5.60
2017-10-12T19:40:03.961Z,13.03
2017-10-12T19:42:32.949Z,16.53
2017-10-12T19:45:01.207Z,7.13
2017-10-12T19:47:28.713Z,6.00
2017-10-12T19:49:56.185Z,4.80
2017-10-12T19:52:24.381Z,4.60
2017-10-12T19:54:52.465Z,5.50
2017-10-12T19:57:19.986Z,4.20
2017-10-12T19:59:48.507Z,4.37
2017-10-12T20:02:15.994Z,4.33
2017-10-12T20:04:43.625Z,3.90
2017-10-12T20:07:11.899Z,4.17
2017-10-12T20:09:39.505Z,4.30
2017-10-12T20:12:07.129Z,5.27
2017-10-12T20:14:35.390Z,6.70
2017-10-12T20:17:02.874Z,5.80
2017-10-12T20:19:31.121Z,5.27
2017-10-12T20:21:59.425Z,4.60
2017-10-12T20:24:27.027Z,5.03
2017-10-12T20:26:55.302Z,8.57
2017-10-12T20:31:51.464Z,10.20
2017-10-12T20:34:19.921Z,28.67
2017-10-12T20:36:47.519Z,10.20
2017-10-12T20:39:15.881Z,4.67
2017-10-12T20:46:38.403Z,4.60
2017-10-12T20:49:05.917Z,3.93
2017-10-12T20:54:20.416Z,4.27
2017-10-12T20:56:50.685Z,5.30
2017-10-12T20:59:19.673Z,5.90
2017-10-12T21:01:59.411Z,6.63
2017-10-12T21:04:31.410Z,6.87
2017-10-12T21:07:09.343Z,7.90
2017-10-12T21:09:37.157Z,5.27
2017-10-12T21:12:04.664Z,6.20
2017-10-12T21:14:32.921Z,5.97
2017-10-12T21:17:00.395Z,7.10
2017-10-12T21:19:28.645Z,4.87
2017-10-12T21:22:01.943Z,4.83
2017-10-12T21:24:29.806Z,4.33
2017-10-12T21:27:12.346Z,5.30
2017-10-12T21:29:39.961Z,5.97
2017-10-12T21:32:20.153Z,6.20
2017-10-12T21:34:48.391Z,5.80
2017-10-12T21:37:25.407Z,6.03
2017-10-12T21:39:53.677Z,5.37
2017-10-12T21:42:21.915Z,4.87
2017-10-12T21:44:49.413Z,4.90
2017-10-12T21:47:17.650Z,5.23
2017-10-12T21:49:45.115Z,5.27
2017-10-12T21:52:12.593Z,4.67
2017-10-12T21:54:40.829Z,5.30
2017-10-12T21:57:08.357Z,5.33
2017-10-12T21:59:35.827Z,5.07
2017-10-12T22:02:03.321Z,4.97
2017-10-12T22:04:31.278Z,4.60
2017-10-12T22:06:58.771Z,4.23
2017-10-12T22:09:27.009Z,4.60
2017-10-12T22:11:54.486Z,5.87
2017-10-12T22:14:22.184Z,5.30
2017-10-12T22:16:49.670Z,5.60
2017-10-12T22:19:17.154Z,4.40
2017-10-12T22:21:44.629Z,4.33
2017-10-12T22:24:12.118Z,4.20
2017-10-12T22:26:39.719Z,4.73
2017-10-12T22:29:07.190Z,5.20
2017-10-12T22:31:34.668Z,4.73
2017-10-12T22:34:03.017Z,4.60
2017-10-12T22:36:30.481Z,4.17
2017-10-12T22:38:57.975Z,4.80
2017-10-12T22:41:26.253Z,4.97
2017-10-12T22:43:53.720Z,4.50
2017-10-12T22:46:21.241Z,6.33
2017-10-12T22:48:48.826Z,5.60
2017-10-12T22:51:17.238Z,5.20
2017-10-12T22:53:44.741Z,4.97
2017-10-12T22:56:13.002Z,4.07
2017-10-12T22:58:42.045Z,4.40
2017-10-12T23:01:09.535Z,4.63
2017-10-12T23:03:36.997Z,5.70
2017-10-12T23:06:04.547Z,4.13
2017-10-12T23:08:32.042Z,4.33
2017-10-12T23:11:00.298Z,4.30
2017-10-12T23:13:27.950Z,4.50
2017-10-12T23:15:55.433Z,3.93
2017-10-12T23:18:23.687Z,4.30
2017-10-12T23:20:51.156Z,4.80
2017-10-12T23:23:18.646Z,4.90
2017-10-12T23:25:46.869Z,4.30
2017-10-12T23:28:14.375Z,4.60
2017-10-12T23:30:43.122Z,4.47
2017-10-12T23:33:10.608Z,5.10
2017-10-12T23:35:38.860Z,5.20
2017-10-12T23:38:06.327Z,5.03
2017-10-12T23:40:33.792Z,4.87
2017-10-12T23:43:02.316Z,4.80
2017-10-12T23:45:29.830Z,4.50
2017-10-12T23:47:58.045Z,4.60
2017-10-12T23:50:25.545Z,4.20
2017-10-12T23:52:53.017Z,4.50
2017-10-12T23:55:20.489Z,5.23
2017-10-12T23:57:48.740Z,5.30
